Delia, KS (66418)

8:32 AM CDT on August 30, 2016 (GMT -0500)
MesoWest | | Change Station
Active Advisory: Flash Flood Watch

Elev 980 ft 39.24 °N, 95.96 °W | Updated 1 hour ago

Clear
Clear
67.0 °F
Feels Like 67.0 °F
N
0.0
Wind Variable Wind from North
Gusts 0.0 mph

Today
High -- | Low -- °F
--% Chance of Precip.
Yesterday
High -- | Low -- °F
Precip. -- in
Pressure 30.13 in
Visibility 10.0 miles
Clouds Clear
Dew Point Not available.
Humidity Not available.
Rainfall in
Snow Depth Not available.
6:51 AM 7:56 PM
Waning Crescent, 4% visible
METAR KTOP 301253Z 00000KT 10SM CLR 22/21 A3015 RMK AO2 SLP203 T02220211
Pressure 30.13 in
Visibility 10.0 miles
Clouds Clear
Dew Point Not available.
Humidity Not available.
Rainfall in
Snow Depth Not available.
6:51 AM 7:56 PM
Waning Crescent, 4% visible
METAR KTOP 301253Z 00000KT 10SM CLR 22/21 A3015 RMK AO2 SLP203 T02220211

10-Day Weather Forecast

Almanac

Astronomy

Aug. 30, 2016 Rise Set
Actual Time
Civil Twilight
Nautical Twilight
Astronomical Twilight
Moon
Length of Visible Light
Length of Day
Tomorrow will be .
, % of the Moon is Illuminated

Today's Extremes

State Highs State Lows

Community

WunderPhotos

Upload Photos

1,935,831 photos uploaded!

WunderBlog® & News

Nearby

Air Quality

  Air Quality AQ Index Pollutant
Not available.

Snow Depth

Station Depth Elevation

Earthquake Activity

City Distance Mag. Time & Date
Minimum magnitude displayed is 2.5.

Coastal Water Temperatures

Place Temperature

Stations

Nearby Weather Stations

Station Location Temp. Windchill Dew Point Humidity Wind Precip. Elev Updated Type
                   

Watches & Warnings

Flash Flood Watch
Issued: 3:38 AM CDT Aug. 30, 2016 – National Weather Service

... Flash Flood Watch remains in effect through 7 PM CDT this
evening...

The Flash Flood Watch continues for

* portions of north central Kansas and northeast Kansas...
including the following areas... in north central Kansas...
Clay... cloud... Ottawa... Republic and Washington. In northeast
Kansas... Brown... Jackson... Marshall... Nemaha... Pottawatomie
and Riley.

* Through 7 PM CDT this evening

* scattered thunderstorms are expected today across north central
and northeast Kansas. The ground remains saturated from previous
heavy rainfall across the watch area. An additional 1 to 2
inches or more of rainfall is possible through early this
evening. This additional rain could result in flash flooding.

Precautionary/preparedness actions...

A Flash Flood Watch means that conditions may develop that lead
to flash flooding. Flash flooding is a very dangerous situation.

You should monitor later forecasts and be prepared to take action
should flash flood warnings be issued.